sensor_id;sensor_type;location;lat;lon;timestamp;noise_LAeq;noise_LA_min;noise_LA_max;noise_LA01;noise_LA95
83034;Laerm;72848;52.216;5.616;2023-12-29T00:01:14;45.25;38.74;52.46;;
83034;Laerm;72848;52.216;5.616;2023-12-29T00:03:46;45.37;39.28;64.00;;
83034;Laerm;72848;52.216;5.616;2023-12-29T00:06:14;42.46;38.43;47.39;;
83034;Laerm;72848;52.216;5.616;2023-12-29T00:08:42;45.77;40.64;55.59;;
83034;Laerm;72848;52.216;5.616;2023-12-29T00:11:16;45.00;40.18;53.10;;
83034;Laerm;72848;52.216;5.616;2023-12-29T00:13:44;46.87;38.34;60.00;;
83034;Laerm;72848;52.216;5.616;2023-12-29T00:16:12;50.18;41.29;57.60;;
83034;Laerm;72848;52.216;5.616;2023-12-29T00:18:41;40.45;37.51;45.29;;
83034;Laerm;72848;52.216;5.616;2023-12-29T00:21:12;48.68;39.00;54.27;;
83034;Laerm;72848;52.216;5.616;2023-12-29T00:23:40;49.60;42.13;57.22;;
83034;Laerm;72848;52.216;5.616;2023-12-29T00:26:09;48.76;43.70;64.87;;
83034;Laerm;72848;52.216;5.616;2023-12-29T00:28:37;46.53;41.14;55.15;;
83034;Laerm;72848;52.216;5.616;2023-12-29T00:31:05;49.47;43.72;56.16;;
83034;Laerm;72848;52.216;5.616;2023-12-29T00:33:34;48.33;41.42;54.30;;
83034;Laerm;72848;52.216;5.616;2023-12-29T00:36:03;47.06;41.04;59.11;;
83034;Laerm;72848;52.216;5.616;2023-12-29T00:38:34;48.36;40.34;54.62;;
83034;Laerm;72848;52.216;5.616;2023-12-29T00:41:02;48.14;37.89;55.98;;
83034;Laerm;72848;52.216;5.616;2023-12-29T00:43:32;44.26;37.87;54.26;;
83034;Laerm;72848;52.216;5.616;2023-12-29T00:46:01;43.88;38.92;50.75;;
83034;Laerm;72848;52.216;5.616;2023-12-29T00:48:29;46.30;38.37;57.06;;
83034;Laerm;72848;52.216;5.616;2023-12-29T00:50:57;46.50;38.59;53.70;;
83034;Laerm;72848;52.216;5.616;2023-12-29T00:53:26;41.33;36.06;52.07;;
83034;Laerm;72848;52.216;5.616;2023-12-29T00:55:57;43.83;35.88;52.79;;
83034;Laerm;72848;52.216;5.616;2023-12-29T00:58:25;41.17;36.94;49.31;;
83034;Laerm;72848;52.216;5.616;2023-12-29T01:00:53;42.54;38.02;47.75;;
83034;Laerm;72848;52.216;5.616;2023-12-29T01:03:22;42.68;38.06;48.89;;
83034;Laerm;72848;52.216;5.616;2023-12-29T01:05:50;42.34;37.99;48.61;;
83034;Laerm;72848;52.216;5.616;2023-12-29T01:08:19;42.83;38.21;48.43;;
83034;Laerm;72848;52.216;5.616;2023-12-29T01:10:47;40.80;37.67;53.28;;
83034;Laerm;72848;52.216;5.616;2023-12-29T01:13:18;45.14;37.82;53.29;;
83034;Laerm;72848;52.216;5.616;2023-12-29T01:15:46;47.69;39.72;59.96;;
83034;Laerm;72848;52.216;5.616;2023-12-29T01:18:14;43.81;37.51;53.47;;
83034;Laerm;72848;52.216;5.616;2023-12-29T01:20:43;45.60;38.07;55.23;;
83034;Laerm;72848;52.216;5.616;2023-12-29T01:23:11;45.16;39.05;65.65;;
83034;Laerm;72848;52.216;5.616;2023-12-29T01:25:40;45.88;38.84;53.07;;
83034;Laerm;72848;52.216;5.616;2023-12-29T01:28:08;41.77;37.74;48.53;;
83034;Laerm;72848;52.216;5.616;2023-12-29T01:30:39;46.51;40.37;56.81;;
83034;Laerm;72848;52.216;5.616;2023-12-29T01:33:08;48.29;39.93;63.70;;
83034;Laerm;72848;52.216;5.616;2023-12-29T01:35:36;46.69;38.73;70.76;;
83034;Laerm;72848;52.216;5.616;2023-12-29T01:38:04;46.38;39.07;54.08;;
83034;Laerm;72848;52.216;5.616;2023-12-29T01:40:32;44.48;39.18;52.60;;
83034;Laerm;72848;52.216;5.616;2023-12-29T01:43:09;48.87;40.91;61.12;;
83034;Laerm;72848;52.216;5.616;2023-12-29T01:45:40;51.06;43.85;64.31;;
83034;Laerm;72848;52.216;5.616;2023-12-29T01:48:09;46.45;40.58;55.48;;
83034;Laerm;72848;52.216;5.616;2023-12-29T01:50:37;50.58;41.75;63.47;;
83034;Laerm;72848;52.216;5.616;2023-12-29T01:53:06;45.59;38.86;65.48;;
83034;Laerm;72848;52.216;5.616;2023-12-29T01:55:35;55.42;43.02;71.92;;
83034;Laerm;72848;52.216;5.616;2023-12-29T01:58:04;43.70;39.02;52.19;;
83034;Laerm;72848;52.216;5.616;2023-12-29T02:00:33;43.23;37.66;49.13;;
83034;Laerm;72848;52.216;5.616;2023-12-29T02:03:04;46.74;38.15;58.09;;
83034;Laerm;72848;52.216;5.616;2023-12-29T02:05:32;47.88;38.14;59.76;;
83034;Laerm;72848;52.216;5.616;2023-12-29T02:08:02;47.78;38.94;65.37;;
83034;Laerm;72848;52.216;5.616;2023-12-29T02:10:31;48.26;39.11;59.96;;
83034;Laerm;72848;52.216;5.616;2023-12-29T02:12:59;47.67;40.68;59.53;;
83034;Laerm;72848;52.216;5.616;2023-12-29T02:15:28;41.98;37.92;49.43;;
83034;Laerm;72848;52.216;5.616;2023-12-29T02:17:58;44.56;37.27;56.78;;
83034;Laerm;72848;52.216;5.616;2023-12-29T02:20:30;47.70;38.93;57.78;;
83034;Laerm;72848;52.216;5.616;2023-12-29T02:22:59;44.97;39.36;56.82;;
83034;Laerm;72848;52.216;5.616;2023-12-29T02:25:30;50.30;39.43;66.40;;
83034;Laerm;72848;52.216;5.616;2023-12-29T02:27:59;48.09;39.68;59.62;;
83034;Laerm;72848;52.216;5.616;2023-12-29T02:30:32;50.47;38.88;67.38;;
83034;Laerm;72848;52.216;5.616;2023-12-29T02:33:04;43.73;37.67;54.28;;
83034;Laerm;72848;52.216;5.616;2023-12-29T02:35:33;48.06;37.94;66.46;;
83034;Laerm;72848;52.216;5.616;2023-12-29T02:38:03;43.23;37.76;56.17;;
83034;Laerm;72848;52.216;5.616;2023-12-29T02:40:34;42.64;38.22;55.25;;
83034;Laerm;72848;52.216;5.616;2023-12-29T02:43:03;42.98;37.79;53.68;;
83034;Laerm;72848;52.216;5.616;2023-12-29T02:45:31;44.19;37.33;52.30;;
83034;Laerm;72848;52.216;5.616;2023-12-29T02:48:00;44.72;37.27;56.60;;
83034;Laerm;72848;52.216;5.616;2023-12-29T02:50:28;47.78;38.51;55.52;;
83034;Laerm;72848;52.216;5.616;2023-12-29T02:52:57;45.18;39.89;51.84;;
83034;Laerm;72848;52.216;5.616;2023-12-29T02:55:25;44.45;39.06;54.83;;
83034;Laerm;72848;52.216;5.616;2023-12-29T02:57:56;47.82;39.13;58.20;;
83034;Laerm;72848;52.216;5.616;2023-12-29T03:00:24;42.85;37.75;60.76;;
83034;Laerm;72848;52.216;5.616;2023-12-29T03:02:53;44.33;39.52;51.91;;
83034;Laerm;72848;52.216;5.616;2023-12-29T03:05:21;42.06;35.53;56.08;;
83034;Laerm;72848;52.216;5.616;2023-12-29T03:07:49;38.51;35.25;43.80;;
83034;Laerm;72848;52.216;5.616;2023-12-29T03:10:18;42.16;36.11;55.61;;
83034;Laerm;72848;52.216;5.616;2023-12-29T03:12:46;42.97;36.48;55.17;;
83034;Laerm;72848;52.216;5.616;2023-12-29T03:15:17;42.37;37.96;50.67;;
83034;Laerm;72848;52.216;5.616;2023-12-29T03:17:46;47.40;38.88;55.19;;
83034;Laerm;72848;52.216;5.616;2023-12-29T03:20:14;47.56;40.52;56.98;;
83034;Laerm;72848;52.216;5.616;2023-12-29T03:22:42;43.35;37.43;56.74;;
83034;Laerm;72848;52.216;5.616;2023-12-29T03:25:10;45.40;38.48;55.24;;
83034;Laerm;72848;52.216;5.616;2023-12-29T03:27:39;40.62;37.32;46.14;;
83034;Laerm;72848;52.216;5.616;2023-12-29T03:30:08;41.68;36.23;62.27;;
83034;Laerm;72848;52.216;5.616;2023-12-29T03:32:39;50.48;36.45;66.30;;
83034;Laerm;72848;52.216;5.616;2023-12-29T03:35:07;48.64;39.74;64.77;;
83034;Laerm;72848;52.216;5.616;2023-12-29T03:37:36;43.66;38.52;57.85;;
83034;Laerm;72848;52.216;5.616;2023-12-29T03:40:05;42.00;37.96;51.63;;
83034;Laerm;72848;52.216;5.616;2023-12-29T03:42:33;45.58;36.28;55.00;;
83034;Laerm;72848;52.216;5.616;2023-12-29T03:45:02;49.79;35.51;74.47;;
83034;Laerm;72848;52.216;5.616;2023-12-29T03:47:30;42.24;37.53;48.53;;
83034;Laerm;72848;52.216;5.616;2023-12-29T03:50:01;41.72;38.04;49.48;;
83034;Laerm;72848;52.216;5.616;2023-12-29T03:52:29;41.07;35.96;52.35;;
83034;Laerm;72848;52.216;5.616;2023-12-29T03:54:58;41.06;35.38;55.90;;
83034;Laerm;72848;52.216;5.616;2023-12-29T03:57:26;37.10;33.51;42.94;;
83034;Laerm;72848;52.216;5.616;2023-12-29T03:59:55;39.06;33.88;54.12;;
83034;Laerm;72848;52.216;5.616;2023-12-29T04:02:23;39.04;35.45;46.35;;
83034;Laerm;72848;52.216;5.616;2023-12-29T04:04:51;38.86;34.85;47.74;;
83034;Laerm;72848;52.216;5.616;2023-12-29T04:07:22;39.01;34.81;44.50;;
83034;Laerm;72848;52.216;5.616;2023-12-29T04:09:51;39.64;35.28;51.28;;
83034;Laerm;72848;52.216;5.616;2023-12-29T04:12:19;39.29;32.81;48.30;;
83034;Laerm;72848;52.216;5.616;2023-12-29T04:14:47;39.69;33.82;47.25;;
83034;Laerm;72848;52.216;5.616;2023-12-29T04:17:16;40.58;35.58;45.54;;
83034;Laerm;72848;52.216;5.616;2023-12-29T04:19:44;40.60;34.58;48.62;;
83034;Laerm;72848;52.216;5.616;2023-12-29T04:22:12;43.03;37.64;50.20;;
83034;Laerm;72848;52.216;5.616;2023-12-29T04:24:43;45.29;36.71;51.13;;
83034;Laerm;72848;52.216;5.616;2023-12-29T04:27:13;43.06;36.04;49.48;;
83034;Laerm;72848;52.216;5.616;2023-12-29T04:29:42;43.52;37.32;58.37;;
83034;Laerm;72848;52.216;5.616;2023-12-29T04:32:11;42.04;38.25;49.81;;
83034;Laerm;72848;52.216;5.616;2023-12-29T04:34:39;42.17;35.96;49.05;;
83034;Laerm;72848;52.216;5.616;2023-12-29T04:37:08;38.92;34.33;47.04;;
83034;Laerm;72848;52.216;5.616;2023-12-29T04:39:36;44.34;36.19;62.07;;
83034;Laerm;72848;52.216;5.616;2023-12-29T04:42:07;40.37;34.69;46.48;;
83034;Laerm;72848;52.216;5.616;2023-12-29T04:44:35;40.94;36.06;47.72;;
83034;Laerm;72848;52.216;5.616;2023-12-29T04:47:04;41.34;36.59;51.38;;
83034;Laerm;72848;52.216;5.616;2023-12-29T04:49:32;41.88;38.57;47.59;;
83034;Laerm;72848;52.216;5.616;2023-12-29T04:52:01;40.25;34.87;47.95;;
83034;Laerm;72848;52.216;5.616;2023-12-29T04:54:29;39.56;35.46;48.58;;
83034;Laerm;72848;52.216;5.616;2023-12-29T04:56:57;43.91;39.67;49.95;;
83034;Laerm;72848;52.216;5.616;2023-12-29T04:59:28;43.69;36.25;56.37;;
83034;Laerm;72848;52.216;5.616;2023-12-29T05:01:57;42.93;36.16;48.99;;
83034;Laerm;72848;52.216;5.616;2023-12-29T05:04:25;42.69;38.02;49.35;;
83034;Laerm;72848;52.216;5.616;2023-12-29T05:06:53;42.55;37.04;49.24;;
83034;Laerm;72848;52.216;5.616;2023-12-29T05:09:22;41.87;37.18;47.91;;
83034;Laerm;72848;52.216;5.616;2023-12-29T05:11:50;43.81;38.25;63.65;;
83034;Laerm;72848;52.216;5.616;2023-12-29T05:14:18;42.40;38.23;51.03;;
83034;Laerm;72848;52.216;5.616;2023-12-29T05:16:49;41.53;37.05;52.77;;
83034;Laerm;72848;52.216;5.616;2023-12-29T05:19:18;47.40;36.69;57.70;;
83034;Laerm;72848;52.216;5.616;2023-12-29T05:21:46;45.93;38.73;55.90;;
83034;Laerm;72848;52.216;5.616;2023-12-29T05:24:15;44.42;39.12;49.75;;
83034;Laerm;72848;52.216;5.616;2023-12-29T05:26:43;43.95;38.71;56.72;;
83034;Laerm;72848;52.216;5.616;2023-12-29T05:29:12;43.63;40.50;48.72;;
83034;Laerm;72848;52.216;5.616;2023-12-29T05:31:40;40.94;37.27;47.16;;
83034;Laerm;72848;52.216;5.616;2023-12-29T05:34:11;48.35;39.29;62.22;;
83034;Laerm;72848;52.216;5.616;2023-12-29T05:36:40;45.62;38.17;59.77;;
83034;Laerm;72848;52.216;5.616;2023-12-29T05:39:08;40.02;36.40;45.00;;
83034;Laerm;72848;52.216;5.616;2023-12-29T05:41:36;46.83;37.65;55.75;;
83034;Laerm;72848;52.216;5.616;2023-12-29T05:44:05;44.20;37.85;51.75;;
83034;Laerm;72848;52.216;5.616;2023-12-29T05:46:33;41.89;36.93;50.75;;
83034;Laerm;72848;52.216;5.616;2023-12-29T05:49:01;43.25;37.67;52.09;;
83034;Laerm;72848;52.216;5.616;2023-12-29T05:51:33;40.25;37.20;44.51;;
83034;Laerm;72848;52.216;5.616;2023-12-29T05:54:01;41.59;37.96;45.12;;
83034;Laerm;72848;52.216;5.616;2023-12-29T05:56:29;42.28;38.38;48.04;;
83034;Laerm;72848;52.216;5.616;2023-12-29T05:58:58;45.31;36.50;55.82;;
83034;Laerm;72848;52.216;5.616;2023-12-29T06:01:26;46.33;41.21;51.62;;
83034;Laerm;72848;52.216;5.616;2023-12-29T06:03:54;40.94;37.38;47.11;;
83034;Laerm;72848;52.216;5.616;2023-12-29T06:06:23;43.47;38.35;51.27;;
83034;Laerm;72848;52.216;5.616;2023-12-29T06:08:54;43.92;38.33;57.56;;
83034;Laerm;72848;52.216;5.616;2023-12-29T06:11:22;44.07;38.11;53.49;;
83034;Laerm;72848;52.216;5.616;2023-12-29T06:13:50;44.30;39.51;49.01;;
83034;Laerm;72848;52.216;5.616;2023-12-29T06:16:19;44.51;39.43;52.12;;
83034;Laerm;72848;52.216;5.616;2023-12-29T06:18:47;44.69;40.05;52.39;;
83034;Laerm;72848;52.216;5.616;2023-12-29T06:21:16;42.85;38.05;48.29;;
83034;Laerm;72848;52.216;5.616;2023-12-29T06:23:44;46.46;40.11;52.29;;
83034;Laerm;72848;52.216;5.616;2023-12-29T06:26:19;42.63;39.52;50.32;;
83034;Laerm;72848;52.216;5.616;2023-12-29T06:28:48;45.26;41.49;51.97;;
83034;Laerm;72848;52.216;5.616;2023-12-29T06:31:16;45.21;39.02;49.81;;
83034;Laerm;72848;52.216;5.616;2023-12-29T06:33:45;42.06;38.28;53.52;;
83034;Laerm;72848;52.216;5.616;2023-12-29T06:36:14;43.25;38.43;52.73;;
83034;Laerm;72848;52.216;5.616;2023-12-29T06:38:42;45.98;39.15;54.26;;
83034;Laerm;72848;52.216;5.616;2023-12-29T06:41:10;46.97;42.07;60.91;;
83034;Laerm;72848;52.216;5.616;2023-12-29T06:43:41;43.15;40.56;48.46;;
83034;Laerm;72848;52.216;5.616;2023-12-29T06:46:10;44.02;40.25;49.49;;
83034;Laerm;72848;52.216;5.616;2023-12-29T06:48:38;44.80;40.38;57.90;;
83034;Laerm;72848;52.216;5.616;2023-12-29T06:51:07;43.32;39.94;49.12;;
83034;Laerm;72848;52.216;5.616;2023-12-29T06:53:35;46.87;41.40;57.09;;
83034;Laerm;72848;52.216;5.616;2023-12-29T06:56:03;44.42;40.57;57.92;;
83034;Laerm;72848;52.216;5.616;2023-12-29T06:58:32;45.36;40.54;53.55;;
83034;Laerm;72848;52.216;5.616;2023-12-29T07:01:03;47.75;41.17;57.49;;
83034;Laerm;72848;52.216;5.616;2023-12-29T07:03:31;44.65;39.84;55.09;;
83034;Laerm;72848;52.216;5.616;2023-12-29T07:06:01;44.13;41.25;49.08;;
83034;Laerm;72848;52.216;5.616;2023-12-29T07:08:29;47.73;40.58;55.42;;
83034;Laerm;72848;52.216;5.616;2023-12-29T07:10:57;44.28;40.97;52.49;;
83034;Laerm;72848;52.216;5.616;2023-12-29T07:13:26;45.76;41.17;55.87;;
83034;Laerm;72848;52.216;5.616;2023-12-29T07:15:55;43.56;38.58;48.24;;
83034;Laerm;72848;52.216;5.616;2023-12-29T07:18:26;43.30;38.83;55.76;;
83034;Laerm;72848;52.216;5.616;2023-12-29T07:20:54;44.52;39.99;51.79;;
83034;Laerm;72848;52.216;5.616;2023-12-29T07:23:22;44.30;40.96;49.99;;
83034;Laerm;72848;52.216;5.616;2023-12-29T07:25:51;43.17;39.74;48.39;;
83034;Laerm;72848;52.216;5.616;2023-12-29T07:28:19;43.30;39.54;49.82;;
83034;Laerm;72848;52.216;5.616;2023-12-29T07:30:47;44.51;39.04;52.23;;
83034;Laerm;72848;52.216;5.616;2023-12-29T07:33:16;44.71;40.19;50.17;;
83034;Laerm;72848;52.216;5.616;2023-12-29T07:35:46;42.84;37.85;52.11;;
83034;Laerm;72848;52.216;5.616;2023-12-29T07:38:15;47.43;41.15;60.24;;
83034;Laerm;72848;52.216;5.616;2023-12-29T07:40:43;47.77;40.97;61.77;;
83034;Laerm;72848;52.216;5.616;2023-12-29T07:43:12;50.16;40.80;66.35;;
83034;Laerm;72848;52.216;5.616;2023-12-29T07:45:40;47.95;40.66;58.89;;
83034;Laerm;72848;52.216;5.616;2023-12-29T07:48:08;45.52;39.49;58.09;;
83034;Laerm;72848;52.216;5.616;2023-12-29T07:50:37;46.43;40.58;60.34;;
83034;Laerm;72848;52.216;5.616;2023-12-29T07:53:08;43.92;39.73;52.08;;
83034;Laerm;72848;52.216;5.616;2023-12-29T07:55:37;46.07;39.55;58.43;;
83034;Laerm;72848;52.216;5.616;2023-12-29T07:58:05;45.77;41.85;51.20;;
83034;Laerm;72848;52.216;5.616;2023-12-29T08:00:34;45.46;41.45;57.88;;
83034;Laerm;72848;52.216;5.616;2023-12-29T08:03:02;51.69;40.97;65.47;;
83034;Laerm;72848;52.216;5.616;2023-12-29T08:05:31;52.34;39.64;68.65;;
83034;Laerm;72848;52.216;5.616;2023-12-29T08:07:59;50.97;40.14;67.18;;
83034;Laerm;72848;52.216;5.616;2023-12-29T08:10:30;50.18;39.63;62.45;;
83034;Laerm;72848;52.216;5.616;2023-12-29T08:12:58;44.55;39.68;53.78;;
83034;Laerm;72848;52.216;5.616;2023-12-29T08:15:27;48.71;40.96;56.86;;
83034;Laerm;72848;52.216;5.616;2023-12-29T08:17:55;42.64;38.41;53.56;;
83034;Laerm;72848;52.216;5.616;2023-12-29T08:20:23;43.61;38.49;49.25;;
83034;Laerm;72848;52.216;5.616;2023-12-29T08:22:52;44.26;39.84;52.65;;
83034;Laerm;72848;52.216;5.616;2023-12-29T08:25:20;47.37;42.05;70.30;;
83034;Laerm;72848;52.216;5.616;2023-12-29T08:27:51;44.34;41.08;53.02;;
83034;Laerm;72848;52.216;5.616;2023-12-29T08:30:19;45.42;40.25;58.07;;
83034;Laerm;72848;52.216;5.616;2023-12-29T08:32:48;45.40;39.99;64.42;;
83034;Laerm;72848;52.216;5.616;2023-12-29T08:35:16;44.92;40.86;60.62;;
83034;Laerm;72848;52.216;5.616;2023-12-29T08:37:44;44.52;38.73;59.47;;
83034;Laerm;72848;52.216;5.616;2023-12-29T08:40:13;44.44;40.75;54.08;;
83034;Laerm;72848;52.216;5.616;2023-12-29T08:42:41;47.52;39.68;61.32;;
83034;Laerm;72848;52.216;5.616;2023-12-29T08:45:12;50.88;40.30;59.84;;
83034;Laerm;72848;52.216;5.616;2023-12-29T08:47:40;45.75;39.58;58.71;;
83034;Laerm;72848;52.216;5.616;2023-12-29T08:50:09;43.84;38.45;47.78;;
83034;Laerm;72848;52.216;5.616;2023-12-29T08:52:37;44.12;38.28;54.16;;
83034;Laerm;72848;52.216;5.616;2023-12-29T08:55:06;47.18;40.23;66.83;;
83034;Laerm;72848;52.216;5.616;2023-12-29T08:57:34;46.32;41.20;54.23;;
83034;Laerm;72848;52.216;5.616;2023-12-29T09:00:03;45.23;42.00;50.92;;
83034;Laerm;72848;52.216;5.616;2023-12-29T09:02:34;46.27;42.00;52.39;;
83034;Laerm;72848;52.216;5.616;2023-12-29T09:05:02;47.29;40.57;60.39;;
83034;Laerm;72848;52.216;5.616;2023-12-29T09:07:31;50.39;44.33;59.16;;
83034;Laerm;72848;52.216;5.616;2023-12-29T09:09:59;49.04;43.01;56.91;;
83034;Laerm;72848;52.216;5.616;2023-12-29T09:12:27;48.68;43.14;55.53;;
83034;Laerm;72848;52.216;5.616;2023-12-29T09:14:56;47.85;42.59;56.07;;
83034;Laerm;72848;52.216;5.616;2023-12-29T09:17:26;46.56;42.03;57.58;;
83034;Laerm;72848;52.216;5.616;2023-12-29T09:19:57;45.75;41.13;56.38;;
83034;Laerm;72848;52.216;5.616;2023-12-29T09:22:25;44.34;40.08;52.60;;
83034;Laerm;72848;52.216;5.616;2023-12-29T09:24:53;44.90;39.87;56.88;;
83034;Laerm;72848;52.216;5.616;2023-12-29T09:27:22;48.95;45.28;56.23;;
83034;Laerm;72848;52.216;5.616;2023-12-29T09:29:50;47.57;43.86;54.32;;
83034;Laerm;72848;52.216;5.616;2023-12-29T09:32:19;46.47;42.18;56.93;;
83034;Laerm;72848;52.216;5.616;2023-12-29T09:34:47;48.87;42.66;64.54;;
83034;Laerm;72848;52.216;5.616;2023-12-29T09:37:18;49.44;39.80;65.32;;
83034;Laerm;72848;52.216;5.616;2023-12-29T09:39:46;46.90;42.09;56.54;;
83034;Laerm;72848;52.216;5.616;2023-12-29T09:42:17;46.47;42.57;52.52;;
83034;Laerm;72848;52.216;5.616;2023-12-29T09:44:49;48.35;42.80;67.00;;
83034;Laerm;72848;52.216;5.616;2023-12-29T09:47:19;46.22;42.47;54.91;;
83034;Laerm;72848;52.216;5.616;2023-12-29T09:49:48;47.42;43.88;53.77;;
83034;Laerm;72848;52.216;5.616;2023-12-29T09:52:20;51.71;45.77;67.81;;
83034;Laerm;72848;52.216;5.616;2023-12-29T09:54:49;45.79;42.29;51.30;;
83034;Laerm;72848;52.216;5.616;2023-12-29T09:57:19;48.07;41.80;67.24;;
83034;Laerm;72848;52.216;5.616;2023-12-29T09:59:48;47.93;43.92;68.67;;
83034;Laerm;72848;52.216;5.616;2023-12-29T10:02:17;50.97;43.44;75.27;;
83034;Laerm;72848;52.216;5.616;2023-12-29T10:04:45;48.35;43.35;56.71;;
83034;Laerm;72848;52.216;5.616;2023-12-29T10:07:15;46.40;41.99;52.64;;
83034;Laerm;72848;52.216;5.616;2023-12-29T10:09:49;46.40;43.08;51.69;;
83034;Laerm;72848;52.216;5.616;2023-12-29T10:12:18;47.83;42.95;54.64;;
83034;Laerm;72848;52.216;5.616;2023-12-29T10:14:48;47.00;42.72;68.42;;
83034;Laerm;72848;52.216;5.616;2023-12-29T10:17:19;46.36;41.79;52.68;;
83034;Laerm;72848;52.216;5.616;2023-12-29T10:19:55;47.38;41.83;66.56;;
83034;Laerm;72848;52.216;5.616;2023-12-29T10:22:29;47.26;42.89;61.79;;
83034;Laerm;72848;52.216;5.616;2023-12-29T10:25:01;49.62;42.76;63.42;;
83034;Laerm;72848;52.216;5.616;2023-12-29T10:27:30;50.52;45.70;60.53;;
83034;Laerm;72848;52.216;5.616;2023-12-29T10:29:58;48.32;43.82;60.41;;
83034;Laerm;72848;52.216;5.616;2023-12-29T10:32:26;47.69;44.53;51.76;;
83034;Laerm;72848;52.216;5.616;2023-12-29T10:35:03;46.30;42.05;58.06;;
83034;Laerm;72848;52.216;5.616;2023-12-29T10:37:35;44.80;40.75;53.34;;
83034;Laerm;72848;52.216;5.616;2023-12-29T10:40:07;47.71;42.06;54.28;;
83034;Laerm;72848;52.216;5.616;2023-12-29T10:42:35;48.59;43.71;63.67;;
83034;Laerm;72848;52.216;5.616;2023-12-29T10:45:19;46.86;42.58;55.03;;
83034;Laerm;72848;52.216;5.616;2023-12-29T10:47:47;48.72;42.49;59.30;;
83034;Laerm;72848;52.216;5.616;2023-12-29T10:50:16;45.74;42.88;52.90;;
83034;Laerm;72848;52.216;5.616;2023-12-29T10:52:44;47.33;42.47;53.72;;
83034;Laerm;72848;52.216;5.616;2023-12-29T10:55:15;47.71;43.06;59.01;;
83034;Laerm;72848;52.216;5.616;2023-12-29T10:57:44;46.55;42.78;52.59;;
83034;Laerm;72848;52.216;5.616;2023-12-29T11:00:12;51.84;44.51;72.43;;
83034;Laerm;72848;52.216;5.616;2023-12-29T11:02:41;47.00;43.50;55.21;;
83034;Laerm;72848;52.216;5.616;2023-12-29T11:05:09;50.84;44.74;60.46;;
83034;Laerm;72848;52.216;5.616;2023-12-29T11:07:38;53.88;46.83;61.91;;
83034;Laerm;72848;52.216;5.616;2023-12-29T11:10:07;52.50;46.72;69.59;;
83034;Laerm;72848;52.216;5.616;2023-12-29T11:12:39;49.75;44.98;57.85;;
83034;Laerm;72848;52.216;5.616;2023-12-29T11:15:07;52.28;43.00;68.84;;
83034;Laerm;72848;52.216;5.616;2023-12-29T11:17:36;47.51;43.21;63.82;;
83034;Laerm;72848;52.216;5.616;2023-12-29T11:20:04;46.32;43.07;55.93;;
83034;Laerm;72848;52.216;5.616;2023-12-29T11:22:33;45.37;42.26;55.94;;
83034;Laerm;72848;52.216;5.616;2023-12-29T11:25:01;48.97;42.93;66.66;;
83034;Laerm;72848;52.216;5.616;2023-12-29T11:27:30;45.83;42.22;50.84;;
83034;Laerm;72848;52.216;5.616;2023-12-29T11:30:01;46.96;42.19;54.71;;
83034;Laerm;72848;52.216;5.616;2023-12-29T11:32:32;46.07;41.15;54.48;;
83034;Laerm;72848;52.216;5.616;2023-12-29T11:35:05;47.28;43.36;53.50;;
83034;Laerm;72848;52.216;5.616;2023-12-29T11:37:41;47.29;42.29;62.86;;
83034;Laerm;72848;52.216;5.616;2023-12-29T11:40:17;46.72;41.99;61.64;;
83034;Laerm;72848;52.216;5.616;2023-12-29T11:42:47;46.90;42.04;58.11;;
83034;Laerm;72848;52.216;5.616;2023-12-29T11:45:28;47.04;43.51;55.22;;
83034;Laerm;72848;52.216;5.616;2023-12-29T11:47:56;46.99;43.08;59.50;;
83034;Laerm;72848;52.216;5.616;2023-12-29T11:50:28;46.85;40.11;60.46;;
83034;Laerm;72848;52.216;5.616;2023-12-29T11:52:57;44.68;41.34;55.02;;
83034;Laerm;72848;52.216;5.616;2023-12-29T11:55:29;47.83;41.66;62.92;;
83034;Laerm;72848;52.216;5.616;2023-12-29T11:57:58;48.42;42.68;60.19;;
83034;Laerm;72848;52.216;5.616;2023-12-29T12:03:26;48.27;42.35;64.91;;
83034;Laerm;72848;52.216;5.616;2023-12-29T12:05:55;46.02;40.71;56.46;;
83034;Laerm;72848;52.216;5.616;2023-12-29T12:08:30;47.53;42.46;61.93;;
83034;Laerm;72848;52.216;5.616;2023-12-29T12:13:42;45.06;40.70;52.30;;
83034;Laerm;72848;52.216;5.616;2023-12-29T12:18:56;46.76;41.59;55.86;;
83034;Laerm;72848;52.216;5.616;2023-12-29T12:21:26;47.01;42.82;54.73;;
83034;Laerm;72848;52.216;5.616;2023-12-29T12:23:54;46.61;41.24;59.08;;
83034;Laerm;72848;52.216;5.616;2023-12-29T12:26:23;46.06;41.84;52.85;;
83034;Laerm;72848;52.216;5.616;2023-12-29T12:28:53;45.60;41.33;55.14;;
83034;Laerm;72848;52.216;5.616;2023-12-29T12:31:22;45.09;41.50;52.00;;
83034;Laerm;72848;52.216;5.616;2023-12-29T12:33:56;43.66;40.35;55.03;;
83034;Laerm;72848;52.216;5.616;2023-12-29T12:36:25;47.98;40.90;63.96;;
83034;Laerm;72848;52.216;5.616;2023-12-29T12:38:53;50.29;41.10;67.23;;
83034;Laerm;72848;52.216;5.616;2023-12-29T12:41:22;43.42;39.85;49.35;;
83034;Laerm;72848;52.216;5.616;2023-12-29T12:43:57;44.45;40.98;47.08;;
83034;Laerm;72848;52.216;5.616;2023-12-29T12:46:27;44.00;41.10;49.90;;
83034;Laerm;72848;52.216;5.616;2023-12-29T12:49:04;44.23;40.22;53.35;;
83034;Laerm;72848;52.216;5.616;2023-12-29T12:51:32;46.65;43.34;55.47;;
83034;Laerm;72848;52.216;5.616;2023-12-29T12:54:01;47.16;42.26;59.73;;
83034;Laerm;72848;52.216;5.616;2023-12-29T12:56:29;45.98;42.13;58.89;;
83034;Laerm;72848;52.216;5.616;2023-12-29T12:58:58;45.82;42.00;61.95;;
83034;Laerm;72848;52.216;5.616;2023-12-29T13:01:27;45.02;40.38;62.82;;
83034;Laerm;72848;52.216;5.616;2023-12-29T13:03:56;42.75;40.20;52.26;;
83034;Laerm;72848;52.216;5.616;2023-12-29T13:06:28;45.09;40.71;52.33;;
83034;Laerm;72848;52.216;5.616;2023-12-29T13:08:57;44.78;40.51;52.80;;
83034;Laerm;72848;52.216;5.616;2023-12-29T13:11:26;45.04;41.61;55.03;;
83034;Laerm;72848;52.216;5.616;2023-12-29T13:13:54;45.46;42.65;51.49;;
83034;Laerm;72848;52.216;5.616;2023-12-29T13:16:29;47.31;41.41;62.39;;
83034;Laerm;72848;52.216;5.616;2023-12-29T13:19:12;45.27;41.02;52.25;;
83034;Laerm;72848;52.216;5.616;2023-12-29T13:21:43;44.52;41.91;50.84;;
83034;Laerm;72848;52.216;5.616;2023-12-29T13:24:13;46.29;42.84;52.04;;
83034;Laerm;72848;52.216;5.616;2023-12-29T13:26:41;45.49;40.72;50.59;;
83034;Laerm;72848;52.216;5.616;2023-12-29T13:29:11;44.30;40.65;53.13;;
83034;Laerm;72848;52.216;5.616;2023-12-29T13:31:39;44.78;41.05;56.23;;
83034;Laerm;72848;52.216;5.616;2023-12-29T13:34:11;47.49;42.28;60.85;;
83034;Laerm;72848;52.216;5.616;2023-12-29T13:36:47;47.50;41.00;59.76;;
83034;Laerm;72848;52.216;5.616;2023-12-29T13:39:21;46.14;41.97;56.49;;
83034;Laerm;72848;52.216;5.616;2023-12-29T13:41:49;53.62;43.69;65.90;;
83034;Laerm;72848;52.216;5.616;2023-12-29T13:44:19;45.03;41.52;61.63;;
83034;Laerm;72848;52.216;5.616;2023-12-29T13:46:48;44.76;41.82;54.95;;
83034;Laerm;72848;52.216;5.616;2023-12-29T13:49:16;42.43;38.66;48.68;;
83034;Laerm;72848;52.216;5.616;2023-12-29T13:51:48;45.88;40.68;53.53;;
83034;Laerm;72848;52.216;5.616;2023-12-29T13:54:16;43.63;40.09;50.34;;
83034;Laerm;72848;52.216;5.616;2023-12-29T13:56:51;44.45;39.42;53.38;;
83034;Laerm;72848;52.216;5.616;2023-12-29T13:59:24;46.69;41.35;68.60;;
83034;Laerm;72848;52.216;5.616;2023-12-29T14:01:57;44.43;39.95;63.17;;
83034;Laerm;72848;52.216;5.616;2023-12-29T14:04:26;46.39;38.88;59.14;;